sensor_id;sensor_type;location;lat;lon;timestamp;temperature;humidity
19665;DHT22;9980;51.020;7.772;2023-03-24T00:00:25;14.10;99.90
19665;DHT22;9980;51.020;7.772;2023-03-24T00:02:52;14.10;99.90
19665;DHT22;9980;51.020;7.772;2023-03-24T00:05:21;14.10;99.90
19665;DHT22;9980;51.020;7.772;2023-03-24T00:07:49;14.10;99.90
19665;DHT22;9980;51.020;7.772;2023-03-24T00:10:21;14.10;99.90
19665;DHT22;9980;51.020;7.772;2023-03-24T00:12:49;14.10;99.90
19665;DHT22;9980;51.020;7.772;2023-03-24T00:15:19;14.10;99.90
19665;DHT22;9980;51.020;7.772;2023-03-24T00:17:47;14.10;99.90
19665;DHT22;9980;51.020;7.772;2023-03-24T00:20:20;14.10;99.90
19665;DHT22;9980;51.020;7.772;2023-03-24T00:22:50;14.10;99.90
19665;DHT22;9980;51.020;7.772;2023-03-24T00:25:26;14.10;99.90
19665;DHT22;9980;51.020;7.772;2023-03-24T00:27:56;14.20;99.90
19665;DHT22;9980;51.020;7.772;2023-03-24T00:30:24;14.10;99.90
19665;DHT22;9980;51.020;7.772;2023-03-24T00:32:51;14.10;99.90
19665;DHT22;9980;51.020;7.772;2023-03-24T00:35:19;14.20;99.90
19665;DHT22;9980;51.020;7.772;2023-03-24T00:37:47;14.20;99.90
19665;DHT22;9980;51.020;7.772;2023-03-24T00:40:19;14.20;99.90
19665;DHT22;9980;51.020;7.772;2023-03-24T00:42:48;14.20;99.90
19665;DHT22;9980;51.020;7.772;2023-03-24T00:45:18;14.20;99.90
19665;DHT22;9980;51.020;7.772;2023-03-24T00:47:48;14.20;99.90
19665;DHT22;9980;51.020;7.772;2023-03-24T00:50:19;14.20;99.90
19665;DHT22;9980;51.020;7.772;2023-03-24T00:52:54;14.20;99.90
19665;DHT22;9980;51.020;7.772;2023-03-24T00:55:21;14.20;99.90
19665;DHT22;9980;51.020;7.772;2023-03-24T00:57:49;14.20;99.90
19665;DHT22;9980;51.020;7.772;2023-03-24T01:00:21;14.20;99.90
19665;DHT22;9980;51.020;7.772;2023-03-24T01:02:54;14.20;99.90
19665;DHT22;9980;51.020;7.772;2023-03-24T01:05:27;14.20;99.90
19665;DHT22;9980;51.020;7.772;2023-03-24T01:07:57;14.20;99.90
19665;DHT22;9980;51.020;7.772;2023-03-24T01:10:33;14.20;99.90
19665;DHT22;9980;51.020;7.772;2023-03-24T01:13:08;14.20;99.90
19665;DHT22;9980;51.020;7.772;2023-03-24T01:15:36;14.20;99.90
19665;DHT22;9980;51.020;7.772;2023-03-24T01:18:03;14.20;99.90
19665;DHT22;9980;51.020;7.772;2023-03-24T01:20:31;14.20;99.90
19665;DHT22;9980;51.020;7.772;2023-03-24T01:23:00;14.20;99.90
19665;DHT22;9980;51.020;7.772;2023-03-24T01:25:28;14.20;99.90
19665;DHT22;9980;51.020;7.772;2023-03-24T01:27:56;14.20;99.90
19665;DHT22;9980;51.020;7.772;2023-03-24T01:30:26;14.20;99.90
19665;DHT22;9980;51.020;7.772;2023-03-24T01:32:55;14.20;99.90
19665;DHT22;9980;51.020;7.772;2023-03-24T01:35:24;14.20;99.90
19665;DHT22;9980;51.020;7.772;2023-03-24T01:37:55;14.30;99.90
19665;DHT22;9980;51.020;7.772;2023-03-24T01:40:33;14.20;99.90
19665;DHT22;9980;51.020;7.772;2023-03-24T01:43:05;14.20;99.90
19665;DHT22;9980;51.020;7.772;2023-03-24T01:45:50;14.30;99.90
19665;DHT22;9980;51.020;7.772;2023-03-24T01:48:44;14.30;99.90
19665;DHT22;9980;51.020;7.772;2023-03-24T01:51:30;14.30;99.90
19665;DHT22;9980;51.020;7.772;2023-03-24T01:57:16;14.30;99.90
19665;DHT22;9980;51.020;7.772;2023-03-24T01:59:49;14.30;99.90
19665;DHT22;9980;51.020;7.772;2023-03-24T02:02:45;14.30;99.90
19665;DHT22;9980;51.020;7.772;2023-03-24T02:05:25;14.30;99.90
19665;DHT22;9980;51.020;7.772;2023-03-24T02:10:39;14.30;99.90
19665;DHT22;9980;51.020;7.772;2023-03-24T02:13:06;14.30;99.90
19665;DHT22;9980;51.020;7.772;2023-03-24T02:15:36;14.30;99.90
19665;DHT22;9980;51.020;7.772;2023-03-24T02:27:53;14.30;99.90
19665;DHT22;9980;51.020;7.772;2023-03-24T02:31:05;14.30;99.90
19665;DHT22;9980;51.020;7.772;2023-03-24T02:43:28;14.30;99.90
19665;DHT22;9980;51.020;7.772;2023-03-24T02:46:11;14.30;99.90
19665;DHT22;9980;51.020;7.772;2023-03-24T02:51:52;14.30;99.90
19665;DHT22;9980;51.020;7.772;2023-03-24T03:04:20;14.30;99.90
19665;DHT22;9980;51.020;7.772;2023-03-24T03:06:57;14.40;99.90
19665;DHT22;9980;51.020;7.772;2023-03-24T03:09:28;14.40;99.90
19665;DHT22;9980;51.020;7.772;2023-03-24T03:11:57;14.30;99.90
19665;DHT22;9980;51.020;7.772;2023-03-24T03:14:45;14.40;99.90
19665;DHT22;9980;51.020;7.772;2023-03-24T03:17:32;14.40;99.90
19665;DHT22;9980;51.020;7.772;2023-03-24T03:20:08;14.40;99.90
19665;DHT22;9980;51.020;7.772;2023-03-24T03:22:47;14.40;99.90
19665;DHT22;9980;51.020;7.772;2023-03-24T03:25:23;14.40;99.90
19665;DHT22;9980;51.020;7.772;2023-03-24T03:27:58;14.40;99.90
19665;DHT22;9980;51.020;7.772;2023-03-24T03:30:40;14.40;99.90
19665;DHT22;9980;51.020;7.772;2023-03-24T03:33:16;14.40;99.90
19665;DHT22;9980;51.020;7.772;2023-03-24T03:36:32;14.40;99.90
19665;DHT22;9980;51.020;7.772;2023-03-24T03:39:11;14.40;99.90
19665;DHT22;9980;51.020;7.772;2023-03-24T03:41:42;14.40;99.90
19665;DHT22;9980;51.020;7.772;2023-03-24T03:44:10;14.40;99.90
19665;DHT22;9980;51.020;7.772;2023-03-24T03:46:37;14.50;99.90
19665;DHT22;9980;51.020;7.772;2023-03-24T03:49:08;14.50;99.90
19665;DHT22;9980;51.020;7.772;2023-03-24T03:51:35;14.40;99.90
19665;DHT22;9980;51.020;7.772;2023-03-24T03:54:04;14.40;99.90
19665;DHT22;9980;51.020;7.772;2023-03-24T03:56:36;14.50;99.90
19665;DHT22;9980;51.020;7.772;2023-03-24T03:59:28;14.50;99.90
19665;DHT22;9980;51.020;7.772;2023-03-24T04:01:57;14.40;99.90
19665;DHT22;9980;51.020;7.772;2023-03-24T04:04:38;14.50;99.90
19665;DHT22;9980;51.020;7.772;2023-03-24T04:08:01;14.50;99.90
19665;DHT22;9980;51.020;7.772;2023-03-24T04:27:02;14.50;99.90
19665;DHT22;9980;51.020;7.772;2023-03-24T04:32:48;14.50;99.90
19665;DHT22;9980;51.020;7.772;2023-03-24T04:35:31;14.50;99.90
19665;DHT22;9980;51.020;7.772;2023-03-24T04:38:19;14.50;99.90
19665;DHT22;9980;51.020;7.772;2023-03-24T04:41:05;14.50;99.90
19665;DHT22;9980;51.020;7.772;2023-03-24T04:43:34;14.50;99.90
19665;DHT22;9980;51.020;7.772;2023-03-24T04:46:07;14.50;99.90
19665;DHT22;9980;51.020;7.772;2023-03-24T04:48:58;14.50;99.90
19665;DHT22;9980;51.020;7.772;2023-03-24T04:51:31;14.50;99.90
19665;DHT22;9980;51.020;7.772;2023-03-24T04:54:03;14.50;99.90
19665;DHT22;9980;51.020;7.772;2023-03-24T04:56:48;14.60;99.90
19665;DHT22;9980;51.020;7.772;2023-03-24T04:59:28;14.60;99.90
19665;DHT22;9980;51.020;7.772;2023-03-24T05:01:57;14.60;99.90
19665;DHT22;9980;51.020;7.772;2023-03-24T05:04:44;14.60;99.90
19665;DHT22;9980;51.020;7.772;2023-03-24T05:07:22;14.60;99.90
19665;DHT22;9980;51.020;7.772;2023-03-24T05:09:54;14.60;99.90
19665;DHT22;9980;51.020;7.772;2023-03-24T05:12:21;14.60;99.90
19665;DHT22;9980;51.020;7.772;2023-03-24T05:15:15;14.60;99.90
19665;DHT22;9980;51.020;7.772;2023-03-24T05:17:42;14.60;99.90
19665;DHT22;9980;51.020;7.772;2023-03-24T05:20:10;14.60;99.90
19665;DHT22;9980;51.020;7.772;2023-03-24T05:22:41;14.60;99.90
19665;DHT22;9980;51.020;7.772;2023-03-24T05:25:08;14.60;99.90
19665;DHT22;9980;51.020;7.772;2023-03-24T05:27:35;14.70;99.90
19665;DHT22;9980;51.020;7.772;2023-03-24T05:30:15;14.70;99.90
19665;DHT22;9980;51.020;7.772;2023-03-24T05:32:43;14.70;99.90
19665;DHT22;9980;51.020;7.772;2023-03-24T05:35:13;14.70;99.90
19665;DHT22;9980;51.020;7.772;2023-03-24T05:37:42;14.70;99.90
19665;DHT22;9980;51.020;7.772;2023-03-24T05:40:09;14.70;99.90
19665;DHT22;9980;51.020;7.772;2023-03-24T05:42:44;14.70;99.90
19665;DHT22;9980;51.020;7.772;2023-03-24T05:45:13;14.70;99.90
19665;DHT22;9980;51.020;7.772;2023-03-24T05:47:39;14.70;99.90
19665;DHT22;9980;51.020;7.772;2023-03-24T05:50:07;14.70;99.90
19665;DHT22;9980;51.020;7.772;2023-03-24T05:52:34;14.70;99.90
19665;DHT22;9980;51.020;7.772;2023-03-24T05:55:18;14.60;99.90
19665;DHT22;9980;51.020;7.772;2023-03-24T05:57:47;14.60;99.90
19665;DHT22;9980;51.020;7.772;2023-03-24T06:00:37;14.50;99.90
19665;DHT22;9980;51.020;7.772;2023-03-24T06:03:10;14.50;99.90
19665;DHT22;9980;51.020;7.772;2023-03-24T06:05:43;14.50;99.90
19665;DHT22;9980;51.020;7.772;2023-03-24T06:08:11;14.40;99.90
19665;DHT22;9980;51.020;7.772;2023-03-24T06:10:38;14.40;99.90
19665;DHT22;9980;51.020;7.772;2023-03-24T06:13:06;14.30;99.90
19665;DHT22;9980;51.020;7.772;2023-03-24T06:15:36;14.30;99.90
19665;DHT22;9980;51.020;7.772;2023-03-24T06:18:25;14.30;99.90
19665;DHT22;9980;51.020;7.772;2023-03-24T06:20:53;14.30;99.90
19665;DHT22;9980;51.020;7.772;2023-03-24T06:23:27;14.20;99.90
19665;DHT22;9980;51.020;7.772;2023-03-24T06:26:11;14.20;99.90
19665;DHT22;9980;51.020;7.772;2023-03-24T06:28:52;14.20;99.90
19665;DHT22;9980;51.020;7.772;2023-03-24T06:31:21;14.20;99.90
19665;DHT22;9980;51.020;7.772;2023-03-24T06:33:51;14.20;99.90
19665;DHT22;9980;51.020;7.772;2023-03-24T06:36:18;14.10;99.90
19665;DHT22;9980;51.020;7.772;2023-03-24T06:38:46;14.10;99.90
19665;DHT22;9980;51.020;7.772;2023-03-24T06:41:17;14.10;99.90
19665;DHT22;9980;51.020;7.772;2023-03-24T06:43:46;14.10;99.90
19665;DHT22;9980;51.020;7.772;2023-03-24T06:46:13;14.10;99.90
19665;DHT22;9980;51.020;7.772;2023-03-24T06:48:43;14.20;99.90
19665;DHT22;9980;51.020;7.772;2023-03-24T06:51:11;14.20;99.90
19665;DHT22;9980;51.020;7.772;2023-03-24T06:53:39;14.20;99.90
19665;DHT22;9980;51.020;7.772;2023-03-24T06:56:07;14.20;99.90
19665;DHT22;9980;51.020;7.772;2023-03-24T06:58:40;14.20;99.90
19665;DHT22;9980;51.020;7.772;2023-03-24T07:01:12;14.20;99.90
19665;DHT22;9980;51.020;7.772;2023-03-24T07:04:01;14.20;99.90
19665;DHT22;9980;51.020;7.772;2023-03-24T07:06:58;14.20;99.90
19665;DHT22;9980;51.020;7.772;2023-03-24T07:09:50;14.20;99.90
19665;DHT22;9980;51.020;7.772;2023-03-24T07:12:17;14.20;99.90
19665;DHT22;9980;51.020;7.772;2023-03-24T07:14:44;14.20;99.90
19665;DHT22;9980;51.020;7.772;2023-03-24T07:17:11;14.20;99.90
19665;DHT22;9980;51.020;7.772;2023-03-24T07:20:14;14.30;99.90
19665;DHT22;9980;51.020;7.772;2023-03-24T07:23:01;14.30;99.90
19665;DHT22;9980;51.020;7.772;2023-03-24T07:25:42;14.30;99.90
19665;DHT22;9980;51.020;7.772;2023-03-24T07:28:18;14.30;99.90
19665;DHT22;9980;51.020;7.772;2023-03-24T07:30:45;14.40;99.90
19665;DHT22;9980;51.020;7.772;2023-03-24T07:33:12;14.40;99.90
19665;DHT22;9980;51.020;7.772;2023-03-24T07:35:42;14.40;99.90
19665;DHT22;9980;51.020;7.772;2023-03-24T07:38:10;14.40;99.90
19665;DHT22;9980;51.020;7.772;2023-03-24T07:40:38;14.50;99.90
19665;DHT22;9980;51.020;7.772;2023-03-24T07:43:05;14.40;99.90
19665;DHT22;9980;51.020;7.772;2023-03-24T07:45:53;14.40;99.90
19665;DHT22;9980;51.020;7.772;2023-03-24T07:48:20;14.40;99.90
19665;DHT22;9980;51.020;7.772;2023-03-24T07:50:47;14.40;99.90
19665;DHT22;9980;51.020;7.772;2023-03-24T07:53:41;14.30;99.90
19665;DHT22;9980;51.020;7.772;2023-03-24T07:56:13;14.30;99.90
19665;DHT22;9980;51.020;7.772;2023-03-24T07:58:50;14.30;99.90
19665;DHT22;9980;51.020;7.772;2023-03-24T08:01:29;14.20;99.90
19665;DHT22;9980;51.020;7.772;2023-03-24T08:04:00;14.20;99.90
19665;DHT22;9980;51.020;7.772;2023-03-24T08:06:46;14.20;99.90
19665;DHT22;9980;51.020;7.772;2023-03-24T08:09:13;14.10;99.90
19665;DHT22;9980;51.020;7.772;2023-03-24T08:11:40;14.10;99.90
19665;DHT22;9980;51.020;7.772;2023-03-24T08:14:07;14.10;99.90
19665;DHT22;9980;51.020;7.772;2023-03-24T08:16:34;14.00;99.90
19665;DHT22;9980;51.020;7.772;2023-03-24T08:19:01;14.00;99.90
19665;DHT22;9980;51.020;7.772;2023-03-24T08:21:28;14.00;99.90
19665;DHT22;9980;51.020;7.772;2023-03-24T08:23:55;13.90;99.90
19665;DHT22;9980;51.020;7.772;2023-03-24T08:26:22;13.90;99.90
19665;DHT22;9980;51.020;7.772;2023-03-24T08:28:52;13.90;99.90
19665;DHT22;9980;51.020;7.772;2023-03-24T08:31:19;13.90;99.90
19665;DHT22;9980;51.020;7.772;2023-03-24T08:33:46;13.80;99.90
19665;DHT22;9980;51.020;7.772;2023-03-24T08:36:13;13.80;99.90
19665;DHT22;9980;51.020;7.772;2023-03-24T08:38:40;13.80;99.90
19665;DHT22;9980;51.020;7.772;2023-03-24T08:41:07;13.80;99.90
19665;DHT22;9980;51.020;7.772;2023-03-24T08:43:35;13.80;99.90
19665;DHT22;9980;51.020;7.772;2023-03-24T08:46:06;13.80;99.90
19665;DHT22;9980;51.020;7.772;2023-03-24T08:48:33;13.80;99.90
19665;DHT22;9980;51.020;7.772;2023-03-24T08:51:10;13.80;99.90
19665;DHT22;9980;51.020;7.772;2023-03-24T08:53:38;13.80;99.90
19665;DHT22;9980;51.020;7.772;2023-03-24T08:56:05;13.80;99.90
19665;DHT22;9980;51.020;7.772;2023-03-24T08:58:32;13.90;99.90
19665;DHT22;9980;51.020;7.772;2023-03-24T09:01:00;13.90;99.90
19665;DHT22;9980;51.020;7.772;2023-03-24T09:03:28;13.90;99.90
19665;DHT22;9980;51.020;7.772;2023-03-24T09:05:55;14.00;99.90
19665;DHT22;9980;51.020;7.772;2023-03-24T09:08:23;14.10;99.90
19665;DHT22;9980;51.020;7.772;2023-03-24T09:10:50;14.20;99.90
19665;DHT22;9980;51.020;7.772;2023-03-24T09:13:18;14.30;99.90
19665;DHT22;9980;51.020;7.772;2023-03-24T09:15:51;14.30;99.90
19665;DHT22;9980;51.020;7.772;2023-03-24T09:18:20;14.40;99.90
19665;DHT22;9980;51.020;7.772;2023-03-24T09:20:48;14.50;99.90
19665;DHT22;9980;51.020;7.772;2023-03-24T09:23:16;14.50;99.90
19665;DHT22;9980;51.020;7.772;2023-03-24T09:25:44;14.50;99.90
19665;DHT22;9980;51.020;7.772;2023-03-24T09:28:11;14.60;99.90
19665;DHT22;9980;51.020;7.772;2023-03-24T09:30:40;14.70;99.90
19665;DHT22;9980;51.020;7.772;2023-03-24T09:33:07;14.70;99.90
19665;DHT22;9980;51.020;7.772;2023-03-24T09:35:34;14.80;99.90
19665;DHT22;9980;51.020;7.772;2023-03-24T09:38:02;14.80;99.90
19665;DHT22;9980;51.020;7.772;2023-03-24T09:40:32;14.80;99.90
19665;DHT22;9980;51.020;7.772;2023-03-24T09:43:04;14.90;99.90
19665;DHT22;9980;51.020;7.772;2023-03-24T09:45:46;14.90;99.90
19665;DHT22;9980;51.020;7.772;2023-03-24T09:48:32;15.00;99.90
19665;DHT22;9980;51.020;7.772;2023-03-24T09:51:35;15.20;99.90
19665;DHT22;9980;51.020;7.772;2023-03-24T09:54:17;15.20;99.90
19665;DHT22;9980;51.020;7.772;2023-03-24T09:56:50;15.40;99.90
19665;DHT22;9980;51.020;7.772;2023-03-24T09:59:31;15.50;99.90
19665;DHT22;9980;51.020;7.772;2023-03-24T10:02:14;15.60;99.90
19665;DHT22;9980;51.020;7.772;2023-03-24T10:04:43;15.70;99.90
19665;DHT22;9980;51.020;7.772;2023-03-24T10:07:35;15.80;99.90
19665;DHT22;9980;51.020;7.772;2023-03-24T10:10:22;15.90;99.90
19665;DHT22;9980;51.020;7.772;2023-03-24T10:12:56;16.00;99.70
19665;DHT22;9980;51.020;7.772;2023-03-24T10:15:38;16.10;99.80
19665;DHT22;9980;51.020;7.772;2023-03-24T10:18:27;16.20;99.20
19665;DHT22;9980;51.020;7.772;2023-03-24T10:21:10;16.20;99.20
19665;DHT22;9980;51.020;7.772;2023-03-24T10:26:52;16.30;98.60
19665;DHT22;9980;51.020;7.772;2023-03-24T10:29:35;16.30;98.60
19665;DHT22;9980;51.020;7.772;2023-03-24T10:32:18;16.30;98.20
19665;DHT22;9980;51.020;7.772;2023-03-24T10:34:56;16.30;98.10
19665;DHT22;9980;51.020;7.772;2023-03-24T10:37:32;16.30;97.60
19665;DHT22;9980;51.020;7.772;2023-03-24T10:40:00;16.30;97.80
19665;DHT22;9980;51.020;7.772;2023-03-24T10:42:32;16.40;97.80
19665;DHT22;9980;51.020;7.772;2023-03-24T10:45:01;16.40;97.50
19665;DHT22;9980;51.020;7.772;2023-03-24T10:47:30;16.40;97.60
19665;DHT22;9980;51.020;7.772;2023-03-24T10:50:06;16.40;97.60
19665;DHT22;9980;51.020;7.772;2023-03-24T10:52:42;16.40;97.10
19665;DHT22;9980;51.020;7.772;2023-03-24T10:55:17;16.50;97.10
19665;DHT22;9980;51.020;7.772;2023-03-24T10:57:47;16.50;96.80
19665;DHT22;9980;51.020;7.772;2023-03-24T11:00:25;16.50;96.50
19665;DHT22;9980;51.020;7.772;2023-03-24T11:02:58;16.40;96.30
19665;DHT22;9980;51.020;7.772;2023-03-24T11:05:31;16.40;96.40
19665;DHT22;9980;51.020;7.772;2023-03-24T11:08:17;16.40;96.70
19665;DHT22;9980;51.020;7.772;2023-03-24T11:10:51;16.40;96.30
19665;DHT22;9980;51.020;7.772;2023-03-24T11:13:31;16.40;96.50
19665;DHT22;9980;51.020;7.772;2023-03-24T11:16:12;16.40;96.20
19665;DHT22;9980;51.020;7.772;2023-03-24T11:19:01;16.40;96.50
19665;DHT22;9980;51.020;7.772;2023-03-24T11:21:35;16.40;96.00
19665;DHT22;9980;51.020;7.772;2023-03-24T11:24:10;16.40;96.20
19665;DHT22;9980;51.020;7.772;2023-03-24T11:26:50;16.40;96.40
19665;DHT22;9980;51.020;7.772;2023-03-24T11:29:26;16.40;95.80
19665;DHT22;9980;51.020;7.772;2023-03-24T11:31:58;16.40;95.90
19665;DHT22;9980;51.020;7.772;2023-03-24T11:34:32;16.40;95.70
19665;DHT22;9980;51.020;7.772;2023-03-24T11:37:16;16.40;95.80
19665;DHT22;9980;51.020;7.772;2023-03-24T11:42:59;16.40;96.10
19665;DHT22;9980;51.020;7.772;2023-03-24T11:45:42;16.40;96.10
19665;DHT22;9980;51.020;7.772;2023-03-24T11:48:46;16.40;95.60
19665;DHT22;9980;51.020;7.772;2023-03-24T11:51:37;16.40;95.90
19665;DHT22;9980;51.020;7.772;2023-03-24T11:54:15;16.40;95.70
19665;DHT22;9980;51.020;7.772;2023-03-24T11:56:53;16.40;95.80
19665;DHT22;9980;51.020;7.772;2023-03-24T11:59:32;16.40;95.70
19665;DHT22;9980;51.020;7.772;2023-03-24T12:04:47;16.40;95.70
19665;DHT22;9980;51.020;7.772;2023-03-24T12:07:44;16.40;95.70
19665;DHT22;9980;51.020;7.772;2023-03-24T12:13:40;16.40;95.60
19665;DHT22;9980;51.020;7.772;2023-03-24T12:19:42;16.50;95.70
19665;DHT22;9980;51.020;7.772;2023-03-24T12:22:46;16.50;95.20
19665;DHT22;9980;51.020;7.772;2023-03-24T12:25:38;16.60;95.50
19665;DHT22;9980;51.020;7.772;2023-03-24T12:28:14;16.60;95.00
19665;DHT22;9980;51.020;7.772;2023-03-24T12:30:57;16.60;95.70
19665;DHT22;9980;51.020;7.772;2023-03-24T12:34:03;16.60;95.60
19665;DHT22;9980;51.020;7.772;2023-03-24T12:42:39;16.60;94.80
19665;DHT22;9980;51.020;7.772;2023-03-24T12:51:16;16.60;95.10
19665;DHT22;9980;51.020;7.772;2023-03-24T12:57:05;16.60;94.20
19665;DHT22;9980;51.020;7.772;2023-03-24T12:59:42;16.60;94.50
19665;DHT22;9980;51.020;7.772;2023-03-24T13:02:34;16.60;94.90
19665;DHT22;9980;51.020;7.772;2023-03-24T13:05:20;16.70;94.90
19665;DHT22;9980;51.020;7.772;2023-03-24T13:07:56;16.80;95.10
19665;DHT22;9980;51.020;7.772;2023-03-24T13:10:29;16.90;94.40
19665;DHT22;9980;51.020;7.772;2023-03-24T13:13:15;17.00;94.40
19665;DHT22;9980;51.020;7.772;2023-03-24T13:15:53;17.10;94.10
19665;DHT22;9980;51.020;7.772;2023-03-24T13:18:45;17.30;94.00
19665;DHT22;9980;51.020;7.772;2023-03-24T13:21:18;17.50;93.60
19665;DHT22;9980;51.020;7.772;2023-03-24T13:24:01;17.60;93.80
19665;DHT22;9980;51.020;7.772;2023-03-24T13:32:33;18.00;92.70
19665;DHT22;9980;51.020;7.772;2023-03-24T13:35:18;18.10;92.80
19665;DHT22;9980;51.020;7.772;2023-03-24T13:38:12;18.20;92.20
19665;DHT22;9980;51.020;7.772;2023-03-24T13:40:48;18.20;92.00
19665;DHT22;9980;51.020;7.772;2023-03-24T13:43:22;18.30;92.20
19665;DHT22;9980;51.020;7.772;2023-03-24T13:45:58;18.30;91.70
19665;DHT22;9980;51.020;7.772;2023-03-24T13:48:48;18.30;91.60
19665;DHT22;9980;51.020;7.772;2023-03-24T13:51:40;18.30;90.90
19665;DHT22;9980;51.020;7.772;2023-03-24T13:54:17;18.30;90.90
19665;DHT22;9980;51.020;7.772;2023-03-24T13:57:00;18.30;90.70
19665;DHT22;9980;51.020;7.772;2023-03-24T14:00:03;18.30;90.90
19665;DHT22;9980;51.020;7.772;2023-03-24T14:14:17;18.20;90.10
19665;DHT22;9980;51.020;7.772;2023-03-24T14:19:40;18.10;90.00
19665;DHT22;9980;51.020;7.772;2023-03-24T14:24:38;18.10;90.00
19665;DHT22;9980;51.020;7.772;2023-03-24T14:27:41;18.10;89.20
19665;DHT22;9980;51.020;7.772;2023-03-24T14:32:55;18.00;89.10
19665;DHT22;9980;51.020;7.772;2023-03-24T14:35:35;18.00;89.30
19665;DHT22;9980;51.020;7.772;2023-03-24T14:40:43;18.00;88.00
19665;DHT22;9980;51.020;7.772;2023-03-24T14:43:21;17.90;88.30
19665;DHT22;9980;51.020;7.772;2023-03-24T14:46:04;17.90;89.00
19665;DHT22;9980;51.020;7.772;2023-03-24T14:51:52;17.80;88.80
19665;DHT22;9980;51.020;7.772;2023-03-24T14:54:37;17.70;88.40
19665;DHT22;9980;51.020;7.772;2023-03-24T14:57:20;17.70;89.00
19665;DHT22;9980;51.020;7.772;2023-03-24T15:00:21;17.60;90.00
19665;DHT22;9980;51.020;7.772;2023-03-24T15:03:16;17.50;90.50
19665;DHT22;9980;51.020;7.772;2023-03-24T15:05:49;17.40;90.20
19665;DHT22;9980;51.020;7.772;2023-03-24T15:08:17;17.40;90.50
19665;DHT22;9980;51.020;7.772;2023-03-24T15:13:38;17.30;91.00
19665;DHT22;9980;51.020;7.772;2023-03-24T15:18:47;17.30;91.30
19665;DHT22;9980;51.020;7.772;2023-03-24T15:23:55;17.30;90.50
19665;DHT22;9980;51.020;7.772;2023-03-24T15:26:25;17.30;90.60
19665;DHT22;9980;51.020;7.772;2023-03-24T15:29:04;17.20;90.80
19665;DHT22;9980;51.020;7.772;2023-03-24T15:31:32;17.10;90.50
19665;DHT22;9980;51.020;7.772;2023-03-24T15:34:21;17.10;90.90
19665;DHT22;9980;51.020;7.772;2023-03-24T15:36:57;17.00;90.80
19665;DHT22;9980;51.020;7.772;2023-03-24T15:39:31;17.00;90.80
19665;DHT22;9980;51.020;7.772;2023-03-24T15:42:07;16.90;91.20
19665;DHT22;9980;51.020;7.772;2023-03-24T15:44:40;16.90;91.40
19665;DHT22;9980;51.020;7.772;2023-03-24T15:47:27;16.80;91.50
19665;DHT22;9980;51.020;7.772;2023-03-24T15:49:59;16.70;91.60
19665;DHT22;9980;51.020;7.772;2023-03-24T15:52:34;16.70;91.70
19665;DHT22;9980;51.020;7.772;2023-03-24T15:55:20;16.60;91.90
19665;DHT22;9980;51.020;7.772;2023-03-24T15:57:49;16.60;92.10
19665;DHT22;9980;51.020;7.772;2023-03-24T16:00:18;16.60;92.40
19665;DHT22;9980;51.020;7.772;2023-03-24T16:02:55;16.50;92.50
19665;DHT22;9980;51.020;7.772;2023-03-24T16:05:27;16.50;92.60
19665;DHT22;9980;51.020;7.772;2023-03-24T16:08:01;16.50;92.80
19665;DHT22;9980;51.020;7.772;2023-03-24T16:10:37;16.50;92.60
19665;DHT22;9980;51.020;7.772;2023-03-24T16:13:22;16.40;92.60
19665;DHT22;9980;51.020;7.772;2023-03-24T16:18:46;16.40;92.60
19665;DHT22;9980;51.020;7.772;2023-03-24T16:21:15;16.40;92.60
19665;DHT22;9980;51.020;7.772;2023-03-24T16:23:43;16.40;92.80
19665;DHT22;9980;51.020;7.772;2023-03-24T16:28:49;16.30;92.30
19665;DHT22;9980;51.020;7.772;2023-03-24T16:31:21;16.30;92.60
19665;DHT22;9980;51.020;7.772;2023-03-24T16:33:51;16.30;92.50
19665;DHT22;9980;51.020;7.772;2023-03-24T16:36:20;16.20;92.40
19665;DHT22;9980;51.020;7.772;2023-03-24T16:38:53;16.20;92.50
19665;DHT22;9980;51.020;7.772;2023-03-24T16:41:21;16.10;92.60
19665;DHT22;9980;51.020;7.772;2023-03-24T16:43:49;16.10;92.60
19665;DHT22;9980;51.020;7.772;2023-03-24T16:48:52;16.00;92.60
19665;DHT22;9980;51.020;7.772;2023-03-24T16:51:20;15.90;92.80
19665;DHT22;9980;51.020;7.772;2023-03-24T16:53:47;15.90;92.80
19665;DHT22;9980;51.020;7.772;2023-03-24T16:56:17;15.80;93.00
19665;DHT22;9980;51.020;7.772;2023-03-24T16:58:45;15.70;93.10
19665;DHT22;9980;51.020;7.772;2023-03-24T17:01:40;15.70;93.10
19665;DHT22;9980;51.020;7.772;2023-03-24T17:04:14;15.70;93.10
19665;DHT22;9980;51.020;7.772;2023-03-24T17:06:48;15.60;93.40
19665;DHT22;9980;51.020;7.772;2023-03-24T17:09:18;15.50;93.40
19665;DHT22;9980;51.020;7.772;2023-03-24T17:11:56;15.50;93.50
19665;DHT22;9980;51.020;7.772;2023-03-24T17:14:24;15.50;93.60
19665;DHT22;9980;51.020;7.772;2023-03-24T17:16:51;15.40;93.70
19665;DHT22;9980;51.020;7.772;2023-03-24T17:19:20;15.40;94.00
19665;DHT22;9980;51.020;7.772;2023-03-24T17:21:58;15.40;94.30
19665;DHT22;9980;51.020;7.772;2023-03-24T17:24:29;15.30;94.90
19665;DHT22;9980;51.020;7.772;2023-03-24T17:27:01;15.30;95.10
19665;DHT22;9980;51.020;7.772;2023-03-24T17:29:28;15.20;95.10
19665;DHT22;9980;51.020;7.772;2023-03-24T17:31:55;15.20;95.50
19665;DHT22;9980;51.020;7.772;2023-03-24T17:34:22;15.10;95.70
19665;DHT22;9980;51.020;7.772;2023-03-24T17:36:49;15.00;95.90
19665;DHT22;9980;51.020;7.772;2023-03-24T17:39:19;14.90;96.20
19665;DHT22;9980;51.020;7.772;2023-03-24T17:41:46;14.80;96.40
19665;DHT22;9980;51.020;7.772;2023-03-24T17:44:13;14.70;96.60
19665;DHT22;9980;51.020;7.772;2023-03-24T17:46:40;14.60;96.70
19665;DHT22;9980;51.020;7.772;2023-03-24T17:49:07;14.60;96.90
19665;DHT22;9980;51.020;7.772;2023-03-24T17:51:34;14.50;97.10
19665;DHT22;9980;51.020;7.772;2023-03-24T17:54:01;14.40;97.20
19665;DHT22;9980;51.020;7.772;2023-03-24T17:56:29;14.30;97.40
19665;DHT22;9980;51.020;7.772;2023-03-24T17:58:56;14.30;97.50
19665;DHT22;9980;51.020;7.772;2023-03-24T18:01:28;14.20;97.60
19665;DHT22;9980;51.020;7.772;2023-03-24T18:03:56;14.10;97.60
19665;DHT22;9980;51.020;7.772;2023-03-24T18:06:24;14.10;97.70
19665;DHT22;9980;51.020;7.772;2023-03-24T18:08:52;14.00;97.60
19665;DHT22;9980;51.020;7.772;2023-03-24T18:11:20;14.00;97.70
19665;DHT22;9980;51.020;7.772;2023-03-24T18:13:46;13.90;97.70
19665;DHT22;9980;51.020;7.772;2023-03-24T18:16:13;13.90;97.70
19665;DHT22;9980;51.020;7.772;2023-03-24T18:18:48;13.80;97.70
19665;DHT22;9980;51.020;7.772;2023-03-24T18:21:15;13.70;97.70
19665;DHT22;9980;51.020;7.772;2023-03-24T18:23:43;13.60;97.80
19665;DHT22;9980;51.020;7.772;2023-03-24T18:26:12;13.60;97.80
19665;DHT22;9980;51.020;7.772;2023-03-24T18:28:40;13.50;97.80
19665;DHT22;9980;51.020;7.772;2023-03-24T18:31:09;13.40;97.90
19665;DHT22;9980;51.020;7.772;2023-03-24T18:33:38;13.40;97.90
19665;DHT22;9980;51.020;7.772;2023-03-24T18:36:09;13.30;98.00
19665;DHT22;9980;51.020;7.772;2023-03-24T18:38:35;13.20;98.00
19665;DHT22;9980;51.020;7.772;2023-03-24T18:41:07;13.20;98.00
19665;DHT22;9980;51.020;7.772;2023-03-24T18:43:35;13.10;98.20
19665;DHT22;9980;51.020;7.772;2023-03-24T18:46:05;13.00;98.10
19665;DHT22;9980;51.020;7.772;2023-03-24T18:48:41;13.00;98.20